Plymouth, Pennsylvania
Current Conditions -  °F | °C
As of 3:54 AM on Monday 24 Nov 2014 (Local Time) from KAVP Reporting Station
Light Rain Light Rain  
Wind Chill: 13°   Ceiling: 4400
Heat Index: 13°   Visibility: 3mi
Dew Point: 11°   Wind: 16mph
Humidity: 84%   Direction: 160°SSE
Pressure: 29.59"   Gusts: 32mph
Location:  41.24°N, 75.96°W
Report Text: KAVP 240854Z AUTO 16014G28KT 3SM -RA BKN044 BKN060 OVC080 13/11 A2959 RMK AO2 PK WND 15033/0821 SLP016 P0012 60020 T01330106 56074 $
Loading
Personal Weather Stations






























Interactive Weather Map New forecast layout! Learn more

10-Day Weather Forecast

Advertisements
Track Severe Weather on mobile